sensor_id;sensor_type;location;lat;lon;timestamp;P1;durP1;ratioP1;P2;durP2;ratioP2
18084;SDS011;9169;44.492;11.372;2023-10-09T00:00:06;28.53;;;9.90;;
18084;SDS011;9169;44.492;11.372;2023-10-09T00:02:49;28.40;;;10.80;;
18084;SDS011;9169;44.492;11.372;2023-10-09T00:05:18;28.60;;;9.97;;
18084;SDS011;9169;44.492;11.372;2023-10-09T00:07:56;32.30;;;9.53;;
18084;SDS011;9169;44.492;11.372;2023-10-09T00:10:25;47.00;;;9.70;;
18084;SDS011;9169;44.492;11.372;2023-10-09T00:13:02;27.80;;;10.20;;
18084;SDS011;9169;44.492;11.372;2023-10-09T00:15:32;25.83;;;8.90;;
18084;SDS011;9169;44.492;11.372;2023-10-09T00:18:01;26.97;;;9.47;;
18084;SDS011;9169;44.492;11.372;2023-10-09T00:20:35;30.20;;;10.17;;
18084;SDS011;9169;44.492;11.372;2023-10-09T00:23:07;26.40;;;9.90;;
18084;SDS011;9169;44.492;11.372;2023-10-09T00:25:48;26.97;;;10.50;;
18084;SDS011;9169;44.492;11.372;2023-10-09T00:28:37;29.23;;;9.50;;
18084;SDS011;9169;44.492;11.372;2023-10-09T00:31:11;29.83;;;10.30;;
18084;SDS011;9169;44.492;11.372;2023-10-09T00:33:43;29.50;;;9.87;;
18084;SDS011;9169;44.492;11.372;2023-10-09T00:36:12;28.73;;;9.30;;
18084;SDS011;9169;44.492;11.372;2023-10-09T00:38:47;26.27;;;9.10;;
18084;SDS011;9169;44.492;11.372;2023-10-09T00:41:18;28.63;;;9.73;;
18084;SDS011;9169;44.492;11.372;2023-10-09T00:43:52;32.87;;;10.20;;
18084;SDS011;9169;44.492;11.372;2023-10-09T00:46:26;25.83;;;8.73;;
18084;SDS011;9169;44.492;11.372;2023-10-09T00:48:56;27.73;;;10.07;;
18084;SDS011;9169;44.492;11.372;2023-10-09T00:51:29;26.70;;;8.70;;
18084;SDS011;9169;44.492;11.372;2023-10-09T00:54:04;26.10;;;8.73;;
18084;SDS011;9169;44.492;11.372;2023-10-09T00:56:34;28.20;;;8.30;;
18084;SDS011;9169;44.492;11.372;2023-10-09T00:59:10;25.30;;;9.20;;
18084;SDS011;9169;44.492;11.372;2023-10-09T01:01:47;30.13;;;9.10;;
18084;SDS011;9169;44.492;11.372;2023-10-09T01:04:23;24.10;;;8.07;;
18084;SDS011;9169;44.492;11.372;2023-10-09T01:06:58;28.57;;;8.80;;
18084;SDS011;9169;44.492;11.372;2023-10-09T01:09:37;26.47;;;8.87;;
18084;SDS011;9169;44.492;11.372;2023-10-09T01:12:10;27.43;;;8.67;;
18084;SDS011;9169;44.492;11.372;2023-10-09T01:14:44;25.73;;;7.40;;
18084;SDS011;9169;44.492;11.372;2023-10-09T01:17:19;28.73;;;9.23;;
18084;SDS011;9169;44.492;11.372;2023-10-09T01:20:03;23.00;;;7.93;;
18084;SDS011;9169;44.492;11.372;2023-10-09T01:22:41;26.73;;;8.63;;
18084;SDS011;9169;44.492;11.372;2023-10-09T01:25:12;26.50;;;8.60;;
18084;SDS011;9169;44.492;11.372;2023-10-09T01:27:43;29.83;;;9.00;;
18084;SDS011;9169;44.492;11.372;2023-10-09T01:30:11;23.30;;;8.23;;
18084;SDS011;9169;44.492;11.372;2023-10-09T01:32:41;32.90;;;8.47;;
18084;SDS011;9169;44.492;11.372;2023-10-09T01:35:12;26.30;;;7.27;;
18084;SDS011;9169;44.492;11.372;2023-10-09T01:37:49;23.47;;;7.17;;
18084;SDS011;9169;44.492;11.372;2023-10-09T01:40:20;28.03;;;7.00;;
18084;SDS011;9169;44.492;11.372;2023-10-09T01:43:02;24.60;;;7.30;;
18084;SDS011;9169;44.492;11.372;2023-10-09T01:45:32;25.40;;;7.07;;
18084;SDS011;9169;44.492;11.372;2023-10-09T01:48:09;21.60;;;7.07;;
18084;SDS011;9169;44.492;11.372;2023-10-09T01:50:39;21.47;;;7.70;;
18084;SDS011;9169;44.492;11.372;2023-10-09T01:53:09;21.90;;;7.00;;
18084;SDS011;9169;44.492;11.372;2023-10-09T01:55:46;29.97;;;8.50;;
18084;SDS011;9169;44.492;11.372;2023-10-09T01:58:16;21.23;;;6.50;;
18084;SDS011;9169;44.492;11.372;2023-10-09T02:00:51;23.70;;;7.47;;
18084;SDS011;9169;44.492;11.372;2023-10-09T02:03:23;30.13;;;8.30;;
18084;SDS011;9169;44.492;11.372;2023-10-09T02:05:52;22.50;;;6.27;;
18084;SDS011;9169;44.492;11.372;2023-10-09T02:08:43;17.47;;;6.60;;
18084;SDS011;9169;44.492;11.372;2023-10-09T02:11:17;23.23;;;7.43;;
18084;SDS011;9169;44.492;11.372;2023-10-09T02:13:51;24.87;;;6.97;;
18084;SDS011;9169;44.492;11.372;2023-10-09T02:16:28;38.63;;;7.90;;
18084;SDS011;9169;44.492;11.372;2023-10-09T02:18:57;19.13;;;6.50;;
18084;SDS011;9169;44.492;11.372;2023-10-09T02:21:26;21.57;;;6.30;;
18084;SDS011;9169;44.492;11.372;2023-10-09T02:24:01;24.20;;;7.67;;
18084;SDS011;9169;44.492;11.372;2023-10-09T02:26:35;21.20;;;7.17;;
18084;SDS011;9169;44.492;11.372;2023-10-09T02:29:24;22.73;;;7.10;;
18084;SDS011;9169;44.492;11.372;2023-10-09T02:31:53;24.80;;;7.37;;
18084;SDS011;9169;44.492;11.372;2023-10-09T02:34:37;23.40;;;7.40;;
18084;SDS011;9169;44.492;11.372;2023-10-09T02:37:06;24.03;;;6.90;;
18084;SDS011;9169;44.492;11.372;2023-10-09T02:39:40;23.67;;;6.97;;
18084;SDS011;9169;44.492;11.372;2023-10-09T02:42:15;24.83;;;6.97;;
18084;SDS011;9169;44.492;11.372;2023-10-09T02:44:50;23.70;;;7.70;;
18084;SDS011;9169;44.492;11.372;2023-10-09T02:47:19;24.60;;;7.30;;
18084;SDS011;9169;44.492;11.372;2023-10-09T02:49:51;26.90;;;7.70;;
18084;SDS011;9169;44.492;11.372;2023-10-09T02:52:27;23.20;;;7.70;;
18084;SDS011;9169;44.492;11.372;2023-10-09T02:55:07;20.97;;;7.57;;
18084;SDS011;9169;44.492;11.372;2023-10-09T02:57:43;24.53;;;7.40;;
18084;SDS011;9169;44.492;11.372;2023-10-09T03:00:12;26.00;;;7.83;;
18084;SDS011;9169;44.492;11.372;2023-10-09T03:02:46;30.30;;;8.53;;
18084;SDS011;9169;44.492;11.372;2023-10-09T03:05:17;27.70;;;8.10;;
18084;SDS011;9169;44.492;11.372;2023-10-09T03:07:47;27.20;;;8.50;;
18084;SDS011;9169;44.492;11.372;2023-10-09T03:10:19;27.10;;;8.63;;
18084;SDS011;9169;44.492;11.372;2023-10-09T03:12:51;27.03;;;8.30;;
18084;SDS011;9169;44.492;11.372;2023-10-09T03:15:20;26.27;;;8.47;;
18084;SDS011;9169;44.492;11.372;2023-10-09T03:17:51;26.77;;;8.83;;
18084;SDS011;9169;44.492;11.372;2023-10-09T03:20:20;30.40;;;9.50;;
18084;SDS011;9169;44.492;11.372;2023-10-09T03:22:49;25.60;;;8.97;;
18084;SDS011;9169;44.492;11.372;2023-10-09T03:25:19;36.30;;;9.50;;
18084;SDS011;9169;44.492;11.372;2023-10-09T03:27:54;30.20;;;8.93;;
18084;SDS011;9169;44.492;11.372;2023-10-09T03:30:25;31.37;;;9.17;;
18084;SDS011;9169;44.492;11.372;2023-10-09T03:32:54;32.40;;;9.00;;
18084;SDS011;9169;44.492;11.372;2023-10-09T03:35:24;31.23;;;9.27;;
18084;SDS011;9169;44.492;11.372;2023-10-09T03:37:54;27.63;;;8.80;;
18084;SDS011;9169;44.492;11.372;2023-10-09T03:40:27;34.37;;;10.27;;
18084;SDS011;9169;44.492;11.372;2023-10-09T03:43:00;36.00;;;10.03;;
18084;SDS011;9169;44.492;11.372;2023-10-09T03:45:31;29.93;;;9.77;;
18084;SDS011;9169;44.492;11.372;2023-10-09T03:48:02;28.30;;;9.07;;
18084;SDS011;9169;44.492;11.372;2023-10-09T03:50:38;29.03;;;9.30;;
18084;SDS011;9169;44.492;11.372;2023-10-09T03:53:10;30.27;;;8.70;;
18084;SDS011;9169;44.492;11.372;2023-10-09T03:55:40;27.07;;;8.40;;
18084;SDS011;9169;44.492;11.372;2023-10-09T03:58:10;32.93;;;9.83;;
18084;SDS011;9169;44.492;11.372;2023-10-09T04:00:40;28.10;;;8.60;;
18084;SDS011;9169;44.492;11.372;2023-10-09T04:03:13;33.97;;;8.97;;
18084;SDS011;9169;44.492;11.372;2023-10-09T04:05:42;35.27;;;8.80;;
18084;SDS011;9169;44.492;11.372;2023-10-09T04:08:12;32.40;;;9.17;;
18084;SDS011;9169;44.492;11.372;2023-10-09T04:10:47;30.57;;;8.83;;
18084;SDS011;9169;44.492;11.372;2023-10-09T04:13:25;29.67;;;9.03;;
18084;SDS011;9169;44.492;11.372;2023-10-09T04:16:00;31.50;;;9.87;;
18084;SDS011;9169;44.492;11.372;2023-10-09T04:18:37;32.10;;;10.33;;
18084;SDS011;9169;44.492;11.372;2023-10-09T04:21:07;32.83;;;9.70;;
18084;SDS011;9169;44.492;11.372;2023-10-09T04:23:45;34.80;;;8.73;;
18084;SDS011;9169;44.492;11.372;2023-10-09T04:26:37;32.40;;;8.87;;
18084;SDS011;9169;44.492;11.372;2023-10-09T04:29:13;35.50;;;10.17;;
18084;SDS011;9169;44.492;11.372;2023-10-09T04:31:45;37.23;;;9.33;;
18084;SDS011;9169;44.492;11.372;2023-10-09T04:34:18;38.90;;;9.80;;
18084;SDS011;9169;44.492;11.372;2023-10-09T04:36:50;40.37;;;9.97;;
18084;SDS011;9169;44.492;11.372;2023-10-09T04:39:24;35.17;;;9.47;;
18084;SDS011;9169;44.492;11.372;2023-10-09T04:42:13;36.00;;;9.43;;
18084;SDS011;9169;44.492;11.372;2023-10-09T04:45:06;39.53;;;8.80;;
18084;SDS011;9169;44.492;11.372;2023-10-09T04:47:53;30.47;;;9.03;;
18084;SDS011;9169;44.492;11.372;2023-10-09T04:50:35;35.23;;;10.20;;
18084;SDS011;9169;44.492;11.372;2023-10-09T04:53:12;35.10;;;9.67;;
18084;SDS011;9169;44.492;11.372;2023-10-09T04:55:50;36.40;;;8.47;;
18084;SDS011;9169;44.492;11.372;2023-10-09T04:58:24;32.50;;;9.80;;
18084;SDS011;9169;44.492;11.372;2023-10-09T05:00:55;35.37;;;9.17;;
18084;SDS011;9169;44.492;11.372;2023-10-09T05:03:39;31.87;;;8.67;;
18084;SDS011;9169;44.492;11.372;2023-10-09T05:06:12;31.70;;;8.00;;
18084;SDS011;9169;44.492;11.372;2023-10-09T05:09:02;32.27;;;8.43;;
18084;SDS011;9169;44.492;11.372;2023-10-09T05:11:40;37.93;;;6.70;;
18084;SDS011;9169;44.492;11.372;2023-10-09T05:14:20;29.20;;;7.30;;
18084;SDS011;9169;44.492;11.372;2023-10-09T05:17:07;25.03;;;6.10;;
18084;SDS011;9169;44.492;11.372;2023-10-09T05:19:43;23.33;;;6.37;;
18084;SDS011;9169;44.492;11.372;2023-10-09T05:22:26;29.43;;;6.60;;
18084;SDS011;9169;44.492;11.372;2023-10-09T05:25:03;29.37;;;6.43;;
18084;SDS011;9169;44.492;11.372;2023-10-09T05:28:03;29.73;;;6.10;;
18084;SDS011;9169;44.492;11.372;2023-10-09T05:30:51;33.87;;;7.27;;
18084;SDS011;9169;44.492;11.372;2023-10-09T05:33:30;23.30;;;5.60;;
18084;SDS011;9169;44.492;11.372;2023-10-09T05:36:01;31.70;;;7.27;;
18084;SDS011;9169;44.492;11.372;2023-10-09T05:38:44;31.40;;;8.30;;
18084;SDS011;9169;44.492;11.372;2023-10-09T05:41:25;27.90;;;6.77;;
18084;SDS011;9169;44.492;11.372;2023-10-09T05:44:14;28.50;;;8.00;;
18084;SDS011;9169;44.492;11.372;2023-10-09T05:47:00;21.27;;;6.07;;
18084;SDS011;9169;44.492;11.372;2023-10-09T05:49:47;25.13;;;6.73;;
18084;SDS011;9169;44.492;11.372;2023-10-09T05:52:30;29.40;;;5.90;;
18084;SDS011;9169;44.492;11.372;2023-10-09T05:55:28;19.47;;;5.23;;
18084;SDS011;9169;44.492;11.372;2023-10-09T05:58:15;24.70;;;5.47;;
18084;SDS011;9169;44.492;11.372;2023-10-09T06:01:07;25.53;;;5.77;;
18084;SDS011;9169;44.492;11.372;2023-10-09T06:03:53;22.20;;;5.43;;
18084;SDS011;9169;44.492;11.372;2023-10-09T06:06:40;39.00;;;6.00;;
18084;SDS011;9169;44.492;11.372;2023-10-09T06:09:13;24.67;;;5.50;;
18084;SDS011;9169;44.492;11.372;2023-10-09T06:12:02;26.07;;;5.20;;
18084;SDS011;9169;44.492;11.372;2023-10-09T06:14:49;24.60;;;6.27;;
18084;SDS011;9169;44.492;11.372;2023-10-09T06:17:24;24.00;;;5.90;;
18084;SDS011;9169;44.492;11.372;2023-10-09T06:20:10;21.30;;;5.27;;
18084;SDS011;9169;44.492;11.372;2023-10-09T06:22:54;30.47;;;5.93;;
18084;SDS011;9169;44.492;11.372;2023-10-09T06:25:42;24.13;;;4.87;;
18084;SDS011;9169;44.492;11.372;2023-10-09T06:28:18;24.70;;;5.33;;
18084;SDS011;9169;44.492;11.372;2023-10-09T06:30:59;21.47;;;4.90;;
18084;SDS011;9169;44.492;11.372;2023-10-09T06:33:49;17.80;;;5.03;;
18084;SDS011;9169;44.492;11.372;2023-10-09T06:36:42;26.33;;;6.90;;
18084;SDS011;9169;44.492;11.372;2023-10-09T06:39:21;29.07;;;5.93;;
18084;SDS011;9169;44.492;11.372;2023-10-09T06:42:15;25.03;;;6.50;;
18084;SDS011;9169;44.492;11.372;2023-10-09T06:44:59;25.43;;;6.53;;
18084;SDS011;9169;44.492;11.372;2023-10-09T06:47:31;23.83;;;5.57;;
18084;SDS011;9169;44.492;11.372;2023-10-09T06:50:09;21.03;;;4.70;;
18084;SDS011;9169;44.492;11.372;2023-10-09T06:52:51;22.20;;;5.60;;
18084;SDS011;9169;44.492;11.372;2023-10-09T06:55:51;20.43;;;5.47;;
18084;SDS011;9169;44.492;11.372;2023-10-09T06:58:19;28.90;;;5.57;;
18084;SDS011;9169;44.492;11.372;2023-10-09T07:00:53;21.47;;;5.33;;
18084;SDS011;9169;44.492;11.372;2023-10-09T07:03:46;22.43;;;5.47;;
18084;SDS011;9169;44.492;11.372;2023-10-09T07:06:26;25.37;;;6.20;;
18084;SDS011;9169;44.492;11.372;2023-10-09T07:09:13;20.27;;;6.13;;
18084;SDS011;9169;44.492;11.372;2023-10-09T07:11:49;30.13;;;6.00;;
18084;SDS011;9169;44.492;11.372;2023-10-09T07:14:24;29.00;;;6.27;;
18084;SDS011;9169;44.492;11.372;2023-10-09T07:17:10;26.77;;;6.83;;
18084;SDS011;9169;44.492;11.372;2023-10-09T07:19:51;27.77;;;6.47;;
18084;SDS011;9169;44.492;11.372;2023-10-09T07:23:01;23.23;;;6.30;;
18084;SDS011;9169;44.492;11.372;2023-10-09T07:25:41;17.27;;;5.30;;
18084;SDS011;9169;44.492;11.372;2023-10-09T07:28:23;19.70;;;7.07;;
18084;SDS011;9169;44.492;11.372;2023-10-09T07:31:16;24.50;;;5.13;;
18084;SDS011;9169;44.492;11.372;2023-10-09T07:33:51;17.23;;;5.50;;
18084;SDS011;9169;44.492;11.372;2023-10-09T07:36:24;17.93;;;5.20;;
18084;SDS011;9169;44.492;11.372;2023-10-09T07:39:04;16.67;;;4.83;;
18084;SDS011;9169;44.492;11.372;2023-10-09T07:41:44;17.07;;;5.43;;
18084;SDS011;9169;44.492;11.372;2023-10-09T07:44:24;24.50;;;6.10;;
18084;SDS011;9169;44.492;11.372;2023-10-09T07:47:04;20.60;;;7.20;;
18084;SDS011;9169;44.492;11.372;2023-10-09T07:49:46;20.33;;;5.67;;
18084;SDS011;9169;44.492;11.372;2023-10-09T07:52:25;23.97;;;7.90;;
18084;SDS011;9169;44.492;11.372;2023-10-09T07:54:56;24.77;;;5.50;;
18084;SDS011;9169;44.492;11.372;2023-10-09T07:57:33;26.87;;;7.27;;
18084;SDS011;9169;44.492;11.372;2023-10-09T08:00:08;16.03;;;6.73;;
18084;SDS011;9169;44.492;11.372;2023-10-09T08:03:02;19.00;;;5.67;;
18084;SDS011;9169;44.492;11.372;2023-10-09T08:05:51;22.63;;;5.70;;
18084;SDS011;9169;44.492;11.372;2023-10-09T08:08:33;17.70;;;5.40;;
18084;SDS011;9169;44.492;11.372;2023-10-09T08:11:29;19.23;;;5.97;;
18084;SDS011;9169;44.492;11.372;2023-10-09T08:14:26;17.30;;;5.83;;
18084;SDS011;9169;44.492;11.372;2023-10-09T08:17:19;21.70;;;5.60;;
18084;SDS011;9169;44.492;11.372;2023-10-09T08:19:49;17.67;;;6.00;;
18084;SDS011;9169;44.492;11.372;2023-10-09T08:22:22;23.47;;;6.33;;
18084;SDS011;9169;44.492;11.372;2023-10-09T08:25:10;25.73;;;6.17;;
18084;SDS011;9169;44.492;11.372;2023-10-09T08:27:55;22.87;;;6.00;;
18084;SDS011;9169;44.492;11.372;2023-10-09T08:30:26;23.17;;;6.30;;
18084;SDS011;9169;44.492;11.372;2023-10-09T08:33:17;13.50;;;5.53;;
18084;SDS011;9169;44.492;11.372;2023-10-09T08:36:23;20.03;;;5.57;;
18084;SDS011;9169;44.492;11.372;2023-10-09T08:38:57;20.03;;;5.90;;
18084;SDS011;9169;44.492;11.372;2023-10-09T08:41:28;17.17;;;5.10;;
18084;SDS011;9169;44.492;11.372;2023-10-09T08:43:58;17.20;;;5.33;;
18084;SDS011;9169;44.492;11.372;2023-10-09T08:46:30;20.30;;;6.87;;
18084;SDS011;9169;44.492;11.372;2023-10-09T08:49:01;20.73;;;5.70;;
18084;SDS011;9169;44.492;11.372;2023-10-09T08:51:32;16.90;;;5.80;;
18084;SDS011;9169;44.492;11.372;2023-10-09T08:54:02;26.40;;;5.60;;
18084;SDS011;9169;44.492;11.372;2023-10-09T08:56:31;16.70;;;5.13;;
18084;SDS011;9169;44.492;11.372;2023-10-09T08:59:00;35.47;;;14.30;;
18084;SDS011;9169;44.492;11.372;2023-10-09T09:01:31;23.40;;;7.10;;
18084;SDS011;9169;44.492;11.372;2023-10-09T09:04:02;29.40;;;8.80;;
18084;SDS011;9169;44.492;11.372;2023-10-09T09:06:38;26.33;;;8.50;;
18084;SDS011;9169;44.492;11.372;2023-10-09T09:09:11;24.50;;;6.50;;
18084;SDS011;9169;44.492;11.372;2023-10-09T09:11:42;19.00;;;5.97;;
18084;SDS011;9169;44.492;11.372;2023-10-09T09:14:16;27.47;;;8.00;;
18084;SDS011;9169;44.492;11.372;2023-10-09T09:16:49;16.50;;;5.60;;
18084;SDS011;9169;44.492;11.372;2023-10-09T09:19:20;19.73;;;6.53;;
18084;SDS011;9169;44.492;11.372;2023-10-09T09:22:00;18.13;;;5.93;;
18084;SDS011;9169;44.492;11.372;2023-10-09T09:24:38;20.93;;;6.57;;
18084;SDS011;9169;44.492;11.372;2023-10-09T09:27:15;18.17;;;6.17;;
18084;SDS011;9169;44.492;11.372;2023-10-09T09:29:47;23.57;;;6.10;;
18084;SDS011;9169;44.492;11.372;2023-10-09T09:32:26;22.80;;;5.30;;
18084;SDS011;9169;44.492;11.372;2023-10-09T09:35:04;22.30;;;6.10;;
18084;SDS011;9169;44.492;11.372;2023-10-09T09:37:51;16.67;;;5.67;;
18084;SDS011;9169;44.492;11.372;2023-10-09T09:40:22;18.30;;;5.60;;
18084;SDS011;9169;44.492;11.372;2023-10-09T09:43:00;17.10;;;5.20;;
18084;SDS011;9169;44.492;11.372;2023-10-09T09:45:32;21.07;;;5.30;;
18084;SDS011;9169;44.492;11.372;2023-10-09T09:48:03;19.53;;;5.30;;
18084;SDS011;9169;44.492;11.372;2023-10-09T09:50:35;16.63;;;4.90;;
18084;SDS011;9169;44.492;11.372;2023-10-09T09:53:10;24.40;;;7.10;;
18084;SDS011;9169;44.492;11.372;2023-10-09T09:55:45;18.70;;;5.87;;
18084;SDS011;9169;44.492;11.372;2023-10-09T09:58:23;25.00;;;5.70;;
18084;SDS011;9169;44.492;11.372;2023-10-09T10:01:00;20.93;;;6.27;;
18084;SDS011;9169;44.492;11.372;2023-10-09T10:03:42;14.60;;;4.90;;
18084;SDS011;9169;44.492;11.372;2023-10-09T10:06:15;24.27;;;5.13;;
18084;SDS011;9169;44.492;11.372;2023-10-09T10:08:48;19.03;;;5.20;;
18084;SDS011;9169;44.492;11.372;2023-10-09T10:14:11;20.00;;;5.30;;
18084;SDS011;9169;44.492;11.372;2023-10-09T10:17:04;18.63;;;5.30;;
18084;SDS011;9169;44.492;11.372;2023-10-09T10:20:02;22.33;;;5.60;;
18084;SDS011;9169;44.492;11.372;2023-10-09T10:22:48;20.73;;;6.23;;
18084;SDS011;9169;44.492;11.372;2023-10-09T10:25:33;19.40;;;6.20;;
18084;SDS011;9169;44.492;11.372;2023-10-09T10:28:16;14.67;;;5.37;;
18084;SDS011;9169;44.492;11.372;2023-10-09T10:30:55;20.23;;;6.13;;
18084;SDS011;9169;44.492;11.372;2023-10-09T10:33:27;21.08;;;5.78;;
18084;SDS011;9169;44.492;11.372;2023-10-09T10:36:20;20.20;;;5.57;;
18084;SDS011;9169;44.492;11.372;2023-10-09T10:39:00;17.92;;;5.57;;
18084;SDS011;9169;44.492;11.372;2023-10-09T10:41:34;20.55;;;5.95;;
18084;SDS011;9169;44.492;11.372;2023-10-09T10:44:27;15.60;;;4.70;;
18084;SDS011;9169;44.492;11.372;2023-10-09T10:47:05;23.03;;;5.23;;
18084;SDS011;9169;44.492;11.372;2023-10-09T10:49:49;19.33;;;5.13;;
18084;SDS011;9169;44.492;11.372;2023-10-09T10:52:21;25.37;;;5.90;;
18084;SDS011;9169;44.492;11.372;2023-10-09T10:55:10;18.80;;;5.00;;
18084;SDS011;9169;44.492;11.372;2023-10-09T10:58:15;19.30;;;5.40;;
18084;SDS011;9169;44.492;11.372;2023-10-09T11:00:53;21.07;;;5.10;;
18084;SDS011;9169;44.492;11.372;2023-10-09T11:03:38;18.33;;;5.03;;
18084;SDS011;9169;44.492;11.372;2023-10-09T11:06:34;20.10;;;4.90;;
18084;SDS011;9169;44.492;11.372;2023-10-09T11:09:09;22.30;;;5.57;;
18084;SDS011;9169;44.492;11.372;2023-10-09T11:11:48;18.47;;;5.27;;
18084;SDS011;9169;44.492;11.372;2023-10-09T11:14:22;17.20;;;5.47;;
18084;SDS011;9169;44.492;11.372;2023-10-09T11:16:51;19.63;;;6.00;;
18084;SDS011;9169;44.492;11.372;2023-10-09T11:19:25;23.50;;;6.27;;
18084;SDS011;9169;44.492;11.372;2023-10-09T11:22:00;23.27;;;5.67;;
18084;SDS011;9169;44.492;11.372;2023-10-09T11:24:52;22.17;;;5.40;;
18084;SDS011;9169;44.492;11.372;2023-10-09T11:27:39;21.13;;;6.70;;
18084;SDS011;9169;44.492;11.372;2023-10-09T11:30:17;35.50;;;5.43;;
18084;SDS011;9169;44.492;11.372;2023-10-09T11:33:05;28.90;;;7.27;;
18084;SDS011;9169;44.492;11.372;2023-10-09T11:35:41;20.03;;;5.07;;
18084;SDS011;9169;44.492;11.372;2023-10-09T11:38:25;19.70;;;5.30;;
18084;SDS011;9169;44.492;11.372;2023-10-09T11:40:57;25.27;;;5.70;;
18084;SDS011;9169;44.492;11.372;2023-10-09T11:43:46;21.30;;;6.20;;
18084;SDS011;9169;44.492;11.372;2023-10-09T11:46:21;16.20;;;4.77;;
18084;SDS011;9169;44.492;11.372;2023-10-09T11:49:15;24.47;;;5.47;;
18084;SDS011;9169;44.492;11.372;2023-10-09T11:52:07;16.80;;;5.73;;
18084;SDS011;9169;44.492;11.372;2023-10-09T11:54:55;16.80;;;5.07;;
18084;SDS011;9169;44.492;11.372;2023-10-09T11:57:25;19.63;;;5.80;;
18084;SDS011;9169;44.492;11.372;2023-10-09T12:00:01;19.13;;;5.03;;
18084;SDS011;9169;44.492;11.372;2023-10-09T12:02:51;23.00;;;5.50;;
18084;SDS011;9169;44.492;11.372;2023-10-09T12:05:20;20.40;;;5.80;;
18084;SDS011;9169;44.492;11.372;2023-10-09T12:07:50;19.97;;;4.93;;
18084;SDS011;9169;44.492;11.372;2023-10-09T12:10:23;23.73;;;5.23;;
18084;SDS011;9169;44.492;11.372;2023-10-09T12:12:52;20.77;;;5.50;;
18084;SDS011;9169;44.492;11.372;2023-10-09T12:15:24;22.70;;;5.80;;
18084;SDS011;9169;44.492;11.372;2023-10-09T12:18:04;26.93;;;5.37;;
18084;SDS011;9169;44.492;11.372;2023-10-09T12:20:37;17.30;;;4.87;;
18084;SDS011;9169;44.492;11.372;2023-10-09T12:23:06;16.50;;;4.87;;
18084;SDS011;9169;44.492;11.372;2023-10-09T12:25:41;37.10;;;6.30;;
18084;SDS011;9169;44.492;11.372;2023-10-09T12:28:11;20.37;;;5.07;;
18084;SDS011;9169;44.492;11.372;2023-10-09T12:30:41;34.70;;;5.90;;
18084;SDS011;9169;44.492;11.372;2023-10-09T12:33:10;16.63;;;4.63;;
18084;SDS011;9169;44.492;11.372;2023-10-09T12:35:42;19.33;;;5.60;;
18084;SDS011;9169;44.492;11.372;2023-10-09T12:38:12;21.90;;;5.50;;
18084;SDS011;9169;44.492;11.372;2023-10-09T12:40:47;21.43;;;5.20;;
18084;SDS011;9169;44.492;11.372;2023-10-09T12:43:18;14.00;;;4.33;;
18084;SDS011;9169;44.492;11.372;2023-10-09T12:45:49;20.33;;;5.60;;
18084;SDS011;9169;44.492;11.372;2023-10-09T12:48:18;18.03;;;5.10;;
18084;SDS011;9169;44.492;11.372;2023-10-09T12:50:46;22.30;;;5.50;;
18084;SDS011;9169;44.492;11.372;2023-10-09T12:53:20;21.83;;;5.60;;
18084;SDS011;9169;44.492;11.372;2023-10-09T12:55:51;20.70;;;4.95;;
18084;SDS011;9169;44.492;11.372;2023-10-09T12:58:23;30.23;;;5.80;;
18084;SDS011;9169;44.492;11.372;2023-10-09T13:00:53;18.42;;;5.28;;
18084;SDS011;9169;44.492;11.372;2023-10-09T13:03:22;21.75;;;5.28;;
18084;SDS011;9169;44.492;11.372;2023-10-09T13:05:55;22.50;;;5.78;;
18084;SDS011;9169;44.492;11.372;2023-10-09T13:08:25;30.08;;;5.75;;
18084;SDS011;9169;44.492;11.372;2023-10-09T13:11:03;27.80;;;5.97;;
18084;SDS011;9169;44.492;11.372;2023-10-09T13:13:37;20.55;;;5.10;;
18084;SDS011;9169;44.492;11.372;2023-10-09T13:16:10;21.35;;;5.30;;
18084;SDS011;9169;44.492;11.372;2023-10-09T13:18:47;20.73;;;5.68;;
18084;SDS011;9169;44.492;11.372;2023-10-09T13:21:18;14.57;;;4.70;;
18084;SDS011;9169;44.492;11.372;2023-10-09T13:23:47;15.48;;;5.18;;
18084;SDS011;9169;44.492;11.372;2023-10-09T13:26:19;24.02;;;5.88;;
18084;SDS011;9169;44.492;11.372;2023-10-09T13:28:58;22.98;;;5.68;;
18084;SDS011;9169;44.492;11.372;2023-10-09T13:31:28;17.00;;;6.18;;
18084;SDS011;9169;44.492;11.372;2023-10-09T13:33:59;24.85;;;6.22;;
18084;SDS011;9169;44.492;11.372;2023-10-09T13:36:29;17.48;;;5.68;;
18084;SDS011;9169;44.492;11.372;2023-10-09T13:38:58;24.02;;;5.40;;
18084;SDS011;9169;44.492;11.372;2023-10-09T13:41:48;18.85;;;5.75;;
18084;SDS011;9169;44.492;11.372;2023-10-09T13:44:25;18.83;;;5.05;;
18084;SDS011;9169;44.492;11.372;2023-10-09T13:46:57;15.05;;;5.93;;
18084;SDS011;9169;44.492;11.372;2023-10-09T13:49:28;21.83;;;6.03;;
18084;SDS011;9169;44.492;11.372;2023-10-09T13:51:57;31.20;;;6.18;;
18084;SDS011;9169;44.492;11.372;2023-10-09T13:54:28;21.80;;;5.30;;
18084;SDS011;9169;44.492;11.372;2023-10-09T13:57:08;18.40;;;4.95;;
18084;SDS011;9169;44.492;11.372;2023-10-09T13:59:42;23.25;;;5.40;;
18084;SDS011;9169;44.492;11.372;2023-10-09T14:02:16;24.63;;;5.50;;
18084;SDS011;9169;44.492;11.372;2023-10-09T14:04:46;14.25;;;5.55;;
18084;SDS011;9169;44.492;11.372;2023-10-09T14:07:15;24.20;;;4.78;;
18084;SDS011;9169;44.492;11.372;2023-10-09T14:09:45;19.33;;;4.68;;
18084;SDS011;9169;44.492;11.372;2023-10-09T14:12:24;19.10;;;5.53;;
18084;SDS011;9169;44.492;11.372;2023-10-09T14:14:56;23.23;;;5.10;;
18084;SDS011;9169;44.492;11.372;2023-10-09T14:17:27;20.65;;;6.20;;
18084;SDS011;9169;44.492;11.372;2023-10-09T14:19:57;31.08;;;6.40;;
18084;SDS011;9169;44.492;11.372;2023-10-09T14:22:47;22.73;;;5.88;;
18084;SDS011;9169;44.492;11.372;2023-10-09T14:25:19;26.40;;;6.37;;
18084;SDS011;9169;44.492;11.372;2023-10-09T14:27:50;33.10;;;18.60;;
18084;SDS011;9169;44.492;11.372;2023-10-09T14:30:21;23.17;;;6.10;;
18084;SDS011;9169;44.492;11.372;2023-10-09T14:32:57;21.70;;;7.80;;
18084;SDS011;9169;44.492;11.372;2023-10-09T14:35:29;25.87;;;7.27;;
18084;SDS011;9169;44.492;11.372;2023-10-09T14:38:05;26.83;;;6.60;;
18084;SDS011;9169;44.492;11.372;2023-10-09T14:40:42;24.30;;;6.23;;
18084;SDS011;9169;44.492;11.372;2023-10-09T14:43:12;22.50;;;5.67;;
18084;SDS011;9169;44.492;11.372;2023-10-09T14:45:47;18.20;;;5.80;;
18084;SDS011;9169;44.492;11.372;2023-10-09T14:48:16;25.13;;;5.97;;
18084;SDS011;9169;44.492;11.372;2023-10-09T14:50:48;21.13;;;5.80;;
18084;SDS011;9169;44.492;11.372;2023-10-09T14:53:19;19.33;;;5.93;;
18084;SDS011;9169;44.492;11.372;2023-10-09T14:55:53;18.60;;;5.37;;
18084;SDS011;9169;44.492;11.372;2023-10-09T14:58:24;19.57;;;5.87;;
18084;SDS011;9169;44.492;11.372;2023-10-09T15:00:55;26.37;;;6.20;;
18084;SDS011;9169;44.492;11.372;2023-10-09T15:03:24;22.10;;;5.53;;
18084;SDS011;9169;44.492;11.372;2023-10-09T15:05:55;25.30;;;6.07;;
18084;SDS011;9169;44.492;11.372;2023-10-09T15:08:26;28.90;;;7.03;;
18084;SDS011;9169;44.492;11.372;2023-10-09T15:10:56;24.77;;;6.20;;
18084;SDS011;9169;44.492;11.372;2023-10-09T15:13:30;25.33;;;6.10;;
18084;SDS011;9169;44.492;11.372;2023-10-09T15:15:58;20.03;;;5.47;;
18084;SDS011;9169;44.492;11.372;2023-10-09T15:18:30;21.07;;;5.60;;
18084;SDS011;9169;44.492;11.372;2023-10-09T15:21:04;21.47;;;6.27;;
18084;SDS011;9169;44.492;11.372;2023-10-09T15:23:33;30.50;;;5.97;;
18084;SDS011;9169;44.492;11.372;2023-10-09T15:26:03;26.67;;;5.90;;
18084;SDS011;9169;44.492;11.372;2023-10-09T15:28:35;26.87;;;6.67;;
18084;SDS011;9169;44.492;11.372;2023-10-09T15:31:06;29.57;;;7.70;;